<?xml version="1.0" encoding="UTF-8" standalone="no" ?>
<gpx xmlns="http://www.topografix.com/GPX/1/1" xmlns:xsi="http://www.w3.org/2001/XMLSchema-instance" xsi:schemaLocation="http://www.topografix.com/GPX/1/1 http://www.topografix.com/GPX/1/1/gpx.xsd" version="1.1" creator="VisuGPX - https://www.visugpx.com">
  <metadata>
    <name>La Loire à vélo J3</name>
    <desc><![CDATA[Boucle - Les Ponts de Cé - Saint Rémy La Varenne - Brissac - Les Ponts de Cé]]></desc>
  </metadata>
  <trk>
    <name><![CDATA[49 Mercredi1]]></name>
    <cmt><![CDATA[À partir de la Piste Active]]></cmt>
    <trkseg>
      <trkpt lat="47.42475" lon="-0.52915">
        <ele>14.179688</ele>
        <time>2014-09-03T08:15:59.000Z</time>
      </trkpt>
      <trkpt lat="47.42455" lon="-0.52913">
        <ele>19.296875</ele>
        <time>2014-09-03T08:17:50.000Z</time>
      </trkpt>
      <trkpt lat="47.42449" lon="-0.52903">
        <ele>21.921875</ele>
        <time>2014-09-03T08:17:55.000Z</time>
      </trkpt>
      <trkpt lat="47.4245" lon="-0.5289">
        <ele>31.796875</ele>
        <time>2014-09-03T08:18:41.000Z</time>
      </trkpt>
      <trkpt lat="47.42455" lon="-0.52877">
        <ele>30.796875</ele>
        <time>2014-09-03T08:19:11.000Z</time>
      </trkpt>
      <trkpt lat="47.42455" lon="-0.52862">
        <ele>30.5</ele>
        <time>2014-09-03T08:19:15.000Z</time>
      </trkpt>
      <trkpt lat="47.42457" lon="-0.52848">
        <ele>30.5</ele>
        <time>2014-09-03T08:19:18.000Z</time>
      </trkpt>
      <trkpt lat="47.42459" lon="-0.5282">
        <ele>30.199219</ele>
        <time>2014-09-03T08:19:24.000Z</time>
      </trkpt>
      <trkpt lat="47.42463" lon="-0.52804">
        <ele>29.5</ele>
        <time>2014-09-03T08:19:28.000Z</time>
      </trkpt>
      <trkpt lat="47.42469" lon="-0.52792">
        <ele>27.5</ele>
        <time>2014-09-03T08:19:32.000Z</time>
      </trkpt>
      <trkpt lat="47.42462" lon="-0.52782">
        <ele>26.597656</ele>
        <time>2014-09-03T08:19:39.000Z</time>
      </trkpt>
      <trkpt lat="47.42461" lon="-0.52769">
        <ele>26.398438</ele>
        <time>2014-09-03T08:19:42.000Z</time>
      </trkpt>
      <trkpt lat="47.42459" lon="-0.52736">
        <ele>24.597656</ele>
        <time>2014-09-03T08:19:48.000Z</time>
      </trkpt>
      <trkpt lat="47.42455" lon="-0.5272">
        <ele>24.296875</ele>
        <time>2014-09-03T08:19:51.000Z</time>
      </trkpt>
      <trkpt lat="47.42446" lon="-0.5269">
        <ele>24.5</ele>
        <time>2014-09-03T08:19:57.000Z</time>
      </trkpt>
      <trkpt lat="47.42446" lon="-0.52674">
        <ele>24.796875</ele>
        <time>2014-09-03T08:20:00.000Z</time>
      </trkpt>
      <trkpt lat="47.42448" lon="-0.52657">
        <ele>24.699219</ele>
        <time>2014-09-03T08:20:03.000Z</time>
      </trkpt>
      <trkpt lat="47.42456" lon="-0.52606">
        <ele>25</ele>
        <time>2014-09-03T08:20:12.000Z</time>
      </trkpt>
      <trkpt lat="47.42469" lon="-0.52559">
        <ele>24.699219</ele>
        <time>2014-09-03T08:20:21.000Z</time>
      </trkpt>
      <trkpt lat="47.4247" lon="-0.52542">
        <ele>24.296875</ele>
        <time>2014-09-03T08:20:25.000Z</time>
      </trkpt>
      <trkpt lat="47.42467" lon="-0.52527">
        <ele>23.898438</ele>
        <time>2014-09-03T08:20:28.000Z</time>
      </trkpt>
      <trkpt lat="47.42472" lon="-0.52511">
        <ele>23.699219</ele>
        <time>2014-09-03T08:20:31.000Z</time>
      </trkpt>
      <trkpt lat="47.42484" lon="-0.52508">
        <ele>23.5</ele>
        <time>2014-09-03T08:20:34.000Z</time>
      </trkpt>
      <trkpt lat="47.42495" lon="-0.52514">
        <ele>23.597656</ele>
        <time>2014-09-03T08:20:37.000Z</time>
      </trkpt>
      <trkpt lat="47.42538" lon="-0.52543">
        <ele>22.898438</ele>
        <time>2014-09-03T08:20:49.000Z</time>
      </trkpt>
      <trkpt lat="47.42614" lon="-0.52594">
        <ele>20.699219</ele>
        <time>2014-09-03T08:21:10.000Z</time>
      </trkpt>
      <trkpt lat="47.42621" lon="-0.52604">
        <ele>20.5</ele>
        <time>2014-09-03T08:21:33.000Z</time>
      </trkpt>
      <trkpt lat="47.42632" lon="-0.52612">
        <ele>20.398438</ele>
        <time>2014-09-03T08:21:37.000Z</time>
      </trkpt>
      <trkpt lat="47.42737" lon="-0.52686">
        <ele>20.449219</ele>
        <time>2014-09-03T08:22:26.000Z</time>
      </trkpt>
      <trkpt lat="47.42755" lon="-0.52701">
        <ele>17.296875</ele>
        <time>2014-09-03T08:23:34.000Z</time>
      </trkpt>
      <trkpt lat="47.42767" lon="-0.5271">
        <ele>15.898438</ele>
        <time>2014-09-03T08:23:37.000Z</time>
      </trkpt>
      <trkpt lat="47.4281" lon="-0.52736">
        <ele>21.597656</ele>
        <time>2014-09-03T08:23:47.000Z</time>
      </trkpt>
      <trkpt lat="47.42819" lon="-0.52743">
        <ele>22</ele>
        <time>2014-09-03T08:23:49.000Z</time>
      </trkpt>
      <trkpt lat="47.42829" lon="-0.52748">
        <ele>23.097656</ele>
        <time>2014-09-03T08:23:51.000Z</time>
      </trkpt>
      <trkpt lat="47.42861" lon="-0.52765">
        <ele>25.796875</ele>
        <time>2014-09-03T08:23:57.000Z</time>
      </trkpt>
      <trkpt lat="47.42872" lon="-0.52772">
        <ele>23.796875</ele>
        <time>2014-09-03T08:23:59.000Z</time>
      </trkpt>
      <trkpt lat="47.42883" lon="-0.52777">
        <ele>24.5</ele>
        <time>2014-09-03T08:24:01.000Z</time>
      </trkpt>
      <trkpt lat="47.42904" lon="-0.52786">
        <ele>24.898438</ele>
        <time>2014-09-03T08:24:05.000Z</time>
      </trkpt>
      <trkpt lat="47.42915" lon="-0.52788">
        <ele>24</ele>
        <time>2014-09-03T08:24:07.000Z</time>
      </trkpt>
      <trkpt lat="47.42948" lon="-0.52795">
        <ele>20.296875</ele>
        <time>2014-09-03T08:24:13.000Z</time>
      </trkpt>
      <trkpt lat="47.42958" lon="-0.52795">
        <ele>20.898438</ele>
        <time>2014-09-03T08:24:15.000Z</time>
      </trkpt>
      <trkpt lat="47.42971" lon="-0.52794">
        <ele>23.5</ele>
        <time>2014-09-03T08:24:18.000Z</time>
      </trkpt>
      <trkpt lat="47.42977" lon="-0.52781">
        <ele>27.597656</ele>
        <time>2014-09-03T08:24:22.000Z</time>
      </trkpt>
      <trkpt lat="47.42978" lon="-0.52767">
        <ele>31.199219</ele>
        <time>2014-09-03T08:24:24.000Z</time>
      </trkpt>
      <trkpt lat="47.42976" lon="-0.52753">
        <ele>35.597656</ele>
        <time>2014-09-03T08:24:26.000Z</time>
      </trkpt>
      <trkpt lat="47.42976" lon="-0.52739">
        <ele>39.5</ele>
        <time>2014-09-03T08:24:28.000Z</time>
      </trkpt>
      <trkpt lat="47.42979" lon="-0.52722">
        <ele>41.296875</ele>
        <time>2014-09-03T08:24:31.000Z</time>
      </trkpt>
      <trkpt lat="47.42976" lon="-0.52709">
        <ele>35.597656</ele>
        <time>2014-09-03T08:24:34.000Z</time>
      </trkpt>
      <trkpt lat="47.42963" lon="-0.52706">
        <ele>35.699219</ele>
        <time>2014-09-03T08:24:38.000Z</time>
      </trkpt>
      <trkpt lat="47.42951" lon="-0.527">
        <ele>34.898438</ele>
        <time>2014-09-03T08:24:41.000Z</time>
      </trkpt>
      <trkpt lat="47.4294" lon="-0.52691">
        <ele>33</ele>
        <time>2014-09-03T08:24:44.000Z</time>
      </trkpt>
      <trkpt lat="47.4293" lon="-0.52679">
        <ele>31.296875</ele>
        <time>2014-09-03T08:24:47.000Z</time>
      </trkpt>
      <trkpt lat="47.42921" lon="-0.52665">
        <ele>30.699219</ele>
        <time>2014-09-03T08:24:50.000Z</time>
      </trkpt>
      <trkpt lat="47.42915" lon="-0.52654">
        <ele>30</ele>
        <time>2014-09-03T08:24:52.000Z</time>
      </trkpt>
      <trkpt lat="47.42911" lon="-0.52642">
        <ele>29.097656</ele>
        <time>2014-09-03T08:24:54.000Z</time>
      </trkpt>
      <trkpt lat="47.42912" lon="-0.52623">
        <ele>28.296875</ele>
        <time>2014-09-03T08:24:57.000Z</time>
      </trkpt>
      <trkpt lat="47.42915" lon="-0.52607">
        <ele>26.898438</ele>
        <time>2014-09-03T08:25:00.000Z</time>
      </trkpt>
      <trkpt lat="47.42906" lon="-0.52597">
        <ele>26</ele>
        <time>2014-09-03T08:25:04.000Z</time>
      </trkpt>
      <trkpt lat="47.42894" lon="-0.52599">
        <ele>25.597656</ele>
        <time>2014-09-03T08:25:07.000Z</time>
      </trkpt>
      <trkpt lat="47.42884" lon="-0.52602">
        <ele>25.097656</ele>
        <time>2014-09-03T08:25:09.000Z</time>
      </trkpt>
      <trkpt lat="47.42863" lon="-0.52612">
        <ele>24.199219</ele>
        <time>2014-09-03T08:25:13.000Z</time>
      </trkpt>
      <trkpt lat="47.42853" lon="-0.52615">
        <ele>24</ele>
        <time>2014-09-03T08:25:15.000Z</time>
      </trkpt>
      <trkpt lat="47.42843" lon="-0.52613">
        <ele>24.699219</ele>
        <time>2014-09-03T08:25:17.000Z</time>
      </trkpt>
      <trkpt lat="47.42836" lon="-0.52598">
        <ele>24.5</ele>
        <time>2014-09-03T08:25:20.000Z</time>
      </trkpt>
      <trkpt lat="47.42837" lon="-0.52584">
        <ele>24.296875</ele>
        <time>2014-09-03T08:25:22.000Z</time>
      </trkpt>
      <trkpt lat="47.4284" lon="-0.52569">
        <ele>24.199219</ele>
        <time>2014-09-03T08:25:24.000Z</time>
      </trkpt>
      <trkpt lat="47.42882" lon="-0.52393">
        <ele>23.898438</ele>
        <time>2014-09-03T08:25:46.000Z</time>
      </trkpt>
      <trkpt lat="47.42886" lon="-0.52362">
        <ele>25.398438</ele>
        <time>2014-09-03T08:25:50.000Z</time>
      </trkpt>
      <trkpt lat="47.42888" lon="-0.52347">
        <ele>25.5</ele>
        <time>2014-09-03T08:25:52.000Z</time>
      </trkpt>
      <trkpt lat="47.42889" lon="-0.52332">
        <ele>25.296875</ele>
        <time>2014-09-03T08:25:54.000Z</time>
      </trkpt>
      <trkpt lat="47.42889" lon="-0.52319">
        <ele>25.296875</ele>
        <time>2014-09-03T08:25:56.000Z</time>
      </trkpt>
      <trkpt lat="47.42886" lon="-0.52239">
        <ele>26.199219</ele>
        <time>2014-09-03T08:26:08.000Z</time>
      </trkpt>
      <trkpt lat="47.42881" lon="-0.52151">
        <ele>28.296875</ele>
        <time>2014-09-03T08:26:23.000Z</time>
      </trkpt>
      <trkpt lat="47.42881" lon="-0.52131">
        <ele>27.597656</ele>
        <time>2014-09-03T08:26:26.000Z</time>
      </trkpt>
      <trkpt lat="47.4288" lon="-0.52112">
        <ele>27</ele>
        <time>2014-09-03T08:26:29.000Z</time>
      </trkpt>
      <trkpt lat="47.42849" lon="-0.5171">
        <ele>19.699219</ele>
        <time>2014-09-03T08:27:28.000Z</time>
      </trkpt>
      <trkpt lat="47.42847" lon="-0.51697">
        <ele>19.597656</ele>
        <time>2014-09-03T08:27:30.000Z</time>
      </trkpt>
      <trkpt lat="47.4284" lon="-0.51671">
        <ele>19.199219</ele>
        <time>2014-09-03T08:27:34.000Z</time>
      </trkpt>
      <trkpt lat="47.42832" lon="-0.51647">
        <ele>18.699219</ele>
        <time>2014-09-03T08:27:38.000Z</time>
      </trkpt>
      <trkpt lat="47.42824" lon="-0.5163">
        <ele>18.398438</ele>
        <time>2014-09-03T08:27:41.000Z</time>
      </trkpt>
      <trkpt lat="47.42811" lon="-0.51608">
        <ele>18.5</ele>
        <time>2014-09-03T08:27:45.000Z</time>
      </trkpt>
      <trkpt lat="47.42799" lon="-0.51588">
        <ele>18.796875</ele>
        <time>2014-09-03T08:27:49.000Z</time>
      </trkpt>
      <trkpt lat="47.42725" lon="-0.51483">
        <ele>19.199219</ele>
        <time>2014-09-03T08:28:12.000Z</time>
      </trkpt>
      <trkpt lat="47.42564" lon="-0.51262">
        <ele>15</ele>
        <time>2014-09-03T08:29:02.000Z</time>
      </trkpt>
      <trkpt lat="47.42556" lon="-0.51248">
        <ele>14.398438</ele>
        <time>2014-09-03T08:29:05.000Z</time>
      </trkpt>
      <trkpt lat="47.42542" lon="-0.51221">
        <ele>14.796875</ele>
        <time>2014-09-03T08:29:10.000Z</time>
      </trkpt>
      <trkpt lat="47.42462" lon="-0.51062">
        <ele>15.699219</ele>
        <time>2014-09-03T08:29:38.000Z</time>
      </trkpt>
      <trkpt lat="47.42457" lon="-0.5105">
        <ele>15.796875</ele>
        <time>2014-09-03T08:29:40.000Z</time>
      </trkpt>
      <trkpt lat="47.42391" lon="-0.50842">
        <ele>17.097656</ele>
        <time>2014-09-03T08:30:14.000Z</time>
      </trkpt>
      <trkpt lat="47.42374" lon="-0.50775">
        <ele>17.097656</ele>
        <time>2014-09-03T08:30:24.000Z</time>
      </trkpt>
      <trkpt lat="47.42333" lon="-0.50569">
        <ele>17.5</ele>
        <time>2014-09-03T08:30:56.000Z</time>
      </trkpt>
      <trkpt lat="47.42332" lon="-0.50554">
        <ele>17.597656</ele>
        <time>2014-09-03T08:30:58.000Z</time>
      </trkpt>
      <trkpt lat="47.42331" lon="-0.5054">
        <ele>17.597656</ele>
        <time>2014-09-03T08:31:00.000Z</time>
      </trkpt>
      <trkpt lat="47.42332" lon="-0.50449">
        <ele>16.699219</ele>
        <time>2014-09-03T08:31:12.000Z</time>
      </trkpt>
      <trkpt lat="47.42333" lon="-0.50432">
        <ele>16.296875</ele>
        <time>2014-09-03T08:31:14.000Z</time>
      </trkpt>
      <trkpt lat="47.4234" lon="-0.50356">
        <ele>18.5</ele>
        <time>2014-09-03T08:31:22.000Z</time>
      </trkpt>
      <trkpt lat="47.42344" lon="-0.50341">
        <ele>19.097656</ele>
        <time>2014-09-03T08:31:24.000Z</time>
      </trkpt>
      <trkpt lat="47.42389" lon="-0.50154">
        <ele>19.699219</ele>
        <time>2014-09-03T08:31:56.000Z</time>
      </trkpt>
      <trkpt lat="47.42402" lon="-0.50099">
        <ele>19.097656</ele>
        <time>2014-09-03T08:32:05.000Z</time>
      </trkpt>
      <trkpt lat="47.42407" lon="-0.50073">
        <ele>19</ele>
        <time>2014-09-03T08:32:09.000Z</time>
      </trkpt>
      <trkpt lat="47.42418" lon="-0.49988">
        <ele>18.699219</ele>
        <time>2014-09-03T08:32:22.000Z</time>
      </trkpt>
      <trkpt lat="47.42419" lon="-0.49961">
        <ele>18.597656</ele>
        <time>2014-09-03T08:32:26.000Z</time>
      </trkpt>
      <trkpt lat="47.42419" lon="-0.49948">
        <ele>18.597656</ele>
        <time>2014-09-03T08:32:28.000Z</time>
      </trkpt>
      <trkpt lat="47.42415" lon="-0.49888">
        <ele>18.296875</ele>
        <time>2014-09-03T08:32:37.000Z</time>
      </trkpt>
      <trkpt lat="47.42409" lon="-0.49793">
        <ele>18.199219</ele>
        <time>2014-09-03T08:32:52.000Z</time>
      </trkpt>
      <trkpt lat="47.42404" lon="-0.49775">
        <ele>18</ele>
        <time>2014-09-03T08:32:55.000Z</time>
      </trkpt>
      <trkpt lat="47.42398" lon="-0.49759">
        <ele>17.796875</ele>
        <time>2014-09-03T08:32:58.000Z</time>
      </trkpt>
      <trkpt lat="47.4239" lon="-0.49743">
        <ele>17.398438</ele>
        <time>2014-09-03T08:33:01.000Z</time>
      </trkpt>
      <trkpt lat="47.42382" lon="-0.49727">
        <ele>17.199219</ele>
        <time>2014-09-03T08:33:04.000Z</time>
      </trkpt>
      <trkpt lat="47.42364" lon="-0.49696">
        <ele>17.097656</ele>
        <time>2014-09-03T08:33:10.000Z</time>
      </trkpt>
      <trkpt lat="47.42357" lon="-0.49686">
        <ele>17.097656</ele>
        <time>2014-09-03T08:33:12.000Z</time>
      </trkpt>
      <trkpt lat="47.4235" lon="-0.49677">
        <ele>17</ele>
        <time>2014-09-03T08:33:14.000Z</time>
      </trkpt>
      <trkpt lat="47.42278" lon="-0.496">
        <ele>16.296875</ele>
        <time>2014-09-03T08:33:33.000Z</time>
      </trkpt>
      <trkpt lat="47.42268" lon="-0.49591">
        <ele>22.5</ele>
        <time>2014-09-03T08:33:36.000Z</time>
      </trkpt>
      <trkpt lat="47.42244" lon="-0.49565">
        <ele>22.398438</ele>
        <time>2014-09-03T08:35:59.000Z</time>
      </trkpt>
      <trkpt lat="47.42196" lon="-0.4951">
        <ele>21.699219</ele>
        <time>2014-09-03T08:36:14.000Z</time>
      </trkpt>
      <trkpt lat="47.42186" lon="-0.49497">
        <ele>21.398438</ele>
        <time>2014-09-03T08:36:17.000Z</time>
      </trkpt>
      <trkpt lat="47.42177" lon="-0.49482">
        <ele>21.5</ele>
        <time>2014-09-03T08:36:20.000Z</time>
      </trkpt>
      <trkpt lat="47.42171" lon="-0.49472">
        <ele>21.699219</ele>
        <time>2014-09-03T08:36:22.000Z</time>
      </trkpt>
      <trkpt lat="47.42161" lon="-0.49449">
        <ele>22</ele>
        <time>2014-09-03T08:36:26.000Z</time>
      </trkpt>
      <trkpt lat="47.42157" lon="-0.49437">
        <ele>22.097656</ele>
        <time>2014-09-03T08:36:28.000Z</time>
      </trkpt>
      <trkpt lat="47.42149" lon="-0.49412">
        <ele>21.699219</ele>
        <time>2014-09-03T08:36:32.000Z</time>
      </trkpt>
      <trkpt lat="47.42146" lon="-0.49399">
        <ele>21.597656</ele>
        <time>2014-09-03T08:36:34.000Z</time>
      </trkpt>
      <trkpt lat="47.42141" lon="-0.49368">
        <ele>21.5</ele>
        <time>2014-09-03T08:36:39.000Z</time>
      </trkpt>
      <trkpt lat="47.42138" lon="-0.49348">
        <ele>21.597656</ele>
        <time>2014-09-03T08:36:42.000Z</time>
      </trkpt>
      <trkpt lat="47.42126" lon="-0.4916">
        <ele>21.898438</ele>
        <time>2014-09-03T08:37:09.000Z</time>
      </trkpt>
      <trkpt lat="47.42125" lon="-0.49121">
        <ele>21.699219</ele>
        <time>2014-09-03T08:37:15.000Z</time>
      </trkpt>
      <trkpt lat="47.42121" lon="-0.49102">
        <ele>21.597656</ele>
        <time>2014-09-03T08:37:18.000Z</time>
      </trkpt>
      <trkpt lat="47.42114" lon="-0.49085">
        <ele>21.5</ele>
        <time>2014-09-03T08:37:21.000Z</time>
      </trkpt>
      <trkpt lat="47.42026" lon="-0.48824">
        <ele>20.398438</ele>
        <time>2014-09-03T08:38:03.000Z</time>
      </trkpt>
      <trkpt lat="47.42019" lon="-0.48796">
        <ele>20.296875</ele>
        <time>2014-09-03T08:38:07.000Z</time>
      </trkpt>
      <trkpt lat="47.42016" lon="-0.48783">
        <ele>20.398438</ele>
        <time>2014-09-03T08:38:09.000Z</time>
      </trkpt>
      <trkpt lat="47.42012" lon="-0.48771">
        <ele>20.398438</ele>
        <time>2014-09-03T08:38:11.000Z</time>
      </trkpt>
      <trkpt lat="47.42008" lon="-0.48759">
        <ele>20.398438</ele>
        <time>2014-09-03T08:38:13.000Z</time>
      </trkpt>
      <trkpt lat="47.41927" lon="-0.48475">
        <ele>20.898438</ele>
        <time>2014-09-03T08:38:58.000Z</time>
      </trkpt>
      <trkpt lat="47.41924" lon="-0.48461">
        <ele>20.898438</ele>
        <time>2014-09-03T08:39:00.000Z</time>
      </trkpt>
      <trkpt lat="47.41921" lon="-0.48448">
        <ele>20.898438</ele>
        <time>2014-09-03T08:39:02.000Z</time>
      </trkpt>
      <trkpt lat="47.4192" lon="-0.48434">
        <ele>20.796875</ele>
        <time>2014-09-03T08:39:04.000Z</time>
      </trkpt>
      <trkpt lat="47.41875" lon="-0.47919">
        <ele>20.898438</ele>
        <time>2014-09-03T08:40:19.000Z</time>
      </trkpt>
      <trkpt lat="47.41839" lon="-0.47272">
        <ele>20.398438</ele>
        <time>2014-09-03T08:41:54.000Z</time>
      </trkpt>
      <trkpt lat="47.4184" lon="-0.47252">
        <ele>20.199219</ele>
        <time>2014-09-03T08:41:57.000Z</time>
      </trkpt>
      <trkpt lat="47.41841" lon="-0.47233">
        <ele>20</ele>
        <time>2014-09-03T08:42:00.000Z</time>
      </trkpt>
      <trkpt lat="47.41863" lon="-0.47013">
        <ele>19.796875</ele>
        <time>2014-09-03T08:42:36.000Z</time>
      </trkpt>
      <trkpt lat="47.41885" lon="-0.46536">
        <ele>19.597656</ele>
        <time>2014-09-03T08:43:54.000Z</time>
      </trkpt>
      <trkpt lat="47.41887" lon="-0.46517">
        <ele>19.398438</ele>
        <time>2014-09-03T08:43:57.000Z</time>
      </trkpt>
      <trkpt lat="47.41923" lon="-0.46318">
        <ele>20.5</ele>
        <time>2014-09-03T08:44:29.000Z</time>
      </trkpt>
      <trkpt lat="47.41932" lon="-0.46261">
        <ele>20</ele>
        <time>2014-09-03T08:44:38.000Z</time>
      </trkpt>
      <trkpt lat="47.41965" lon="-0.45896">
        <ele>19.5</ele>
        <time>2014-09-03T08:45:36.000Z</time>
      </trkpt>
      <trkpt lat="47.41966" lon="-0.45877">
        <ele>19.699219</ele>
        <time>2014-09-03T08:45:39.000Z</time>
      </trkpt>
      <trkpt lat="47.41973" lon="-0.454">
        <ele>20.898438</ele>
        <time>2014-09-03T08:46:57.000Z</time>
      </trkpt>
      <trkpt lat="47.41972" lon="-0.45381">
        <ele>21.097656</ele>
        <time>2014-09-03T08:47:00.000Z</time>
      </trkpt>
      <trkpt lat="47.41969" lon="-0.45364">
        <ele>21.097656</ele>
        <time>2014-09-03T08:47:03.000Z</time>
      </trkpt>
      <trkpt lat="47.4197" lon="-0.45346">
        <ele>21.199219</ele>
        <time>2014-09-03T08:47:06.000Z</time>
      </trkpt>
      <trkpt lat="47.41972" lon="-0.45327">
        <ele>21.199219</ele>
        <time>2014-09-03T08:47:09.000Z</time>
      </trkpt>
      <trkpt lat="47.41979" lon="-0.4527">
        <ele>20.796875</ele>
        <time>2014-09-03T08:47:18.000Z</time>
      </trkpt>
      <trkpt lat="47.41983" lon="-0.45252">
        <ele>20.5</ele>
        <time>2014-09-03T08:47:21.000Z</time>
      </trkpt>
      <trkpt lat="47.41989" lon="-0.45235">
        <ele>20.199219</ele>
        <time>2014-09-03T08:47:24.000Z</time>
      </trkpt>
      <trkpt lat="47.42037" lon="-0.451">
        <ele>20.199219</ele>
        <time>2014-09-03T08:47:48.000Z</time>
      </trkpt>
      <trkpt lat="47.42043" lon="-0.45085">
        <ele>20.199219</ele>
        <time>2014-09-03T08:47:51.000Z</time>
      </trkpt>
      <trkpt lat="47.4205" lon="-0.45071">
        <ele>20.097656</ele>
        <time>2014-09-03T08:47:54.000Z</time>
      </trkpt>
      <trkpt lat="47.42054" lon="-0.45056">
        <ele>20.097656</ele>
        <time>2014-09-03T08:47:57.000Z</time>
      </trkpt>
      <trkpt lat="47.42051" lon="-0.45041">
        <ele>20.097656</ele>
        <time>2014-09-03T08:48:00.000Z</time>
      </trkpt>
      <trkpt lat="47.42045" lon="-0.45026">
        <ele>20.199219</ele>
        <time>2014-09-03T08:48:03.000Z</time>
      </trkpt>
      <trkpt lat="47.41987" lon="-0.44894">
        <ele>19.699219</ele>
        <time>2014-09-03T08:48:30.000Z</time>
      </trkpt>
      <trkpt lat="47.41984" lon="-0.44879">
        <ele>19.199219</ele>
        <time>2014-09-03T08:48:34.000Z</time>
      </trkpt>
      <trkpt lat="47.41992" lon="-0.4487">
        <ele>19</ele>
        <time>2014-09-03T08:48:38.000Z</time>
      </trkpt>
      <trkpt lat="47.42002" lon="-0.44861">
        <ele>18.796875</ele>
        <time>2014-09-03T08:48:41.000Z</time>
      </trkpt>
      <trkpt lat="47.42011" lon="-0.44856">
        <ele>18.796875</ele>
        <time>2014-09-03T08:48:46.000Z</time>
      </trkpt>
      <trkpt lat="47.42015" lon="-0.44841">
        <ele>18.796875</ele>
        <time>2014-09-03T08:48:51.000Z</time>
      </trkpt>
      <trkpt lat="47.42016" lon="-0.44826">
        <ele>18.898438</ele>
        <time>2014-09-03T08:48:54.000Z</time>
      </trkpt>
      <trkpt lat="47.42026" lon="-0.44636">
        <ele>21</ele>
        <time>2014-09-03T08:49:27.000Z</time>
      </trkpt>
      <trkpt lat="47.42024" lon="-0.44623">
        <ele>21.097656</ele>
        <time>2014-09-03T08:49:31.000Z</time>
      </trkpt>
      <trkpt lat="47.42022" lon="-0.4461">
        <ele>21.199219</ele>
        <time>2014-09-03T08:49:34.000Z</time>
      </trkpt>
      <trkpt lat="47.42021" lon="-0.44594">
        <ele>21.296875</ele>
        <time>2014-09-03T08:49:37.000Z</time>
      </trkpt>
      <trkpt lat="47.42018" lon="-0.44561">
        <ele>21.296875</ele>
        <time>2014-09-03T08:49:43.000Z</time>
      </trkpt>
      <trkpt lat="47.42014" lon="-0.44544">
        <ele>21.199219</ele>
        <time>2014-09-03T08:49:46.000Z</time>
      </trkpt>
      <trkpt lat="47.4201" lon="-0.44527">
        <ele>21.097656</ele>
        <time>2014-09-03T08:49:49.000Z</time>
      </trkpt>
      <trkpt lat="47.41936" lon="-0.44264">
        <ele>21.796875</ele>
        <time>2014-09-03T08:50:33.000Z</time>
      </trkpt>
      <trkpt lat="47.41934" lon="-0.44246">
        <ele>21.796875</ele>
        <time>2014-09-03T08:50:36.000Z</time>
      </trkpt>
      <trkpt lat="47.41933" lon="-0.44227">
        <ele>21.898438</ele>
        <time>2014-09-03T08:50:39.000Z</time>
      </trkpt>
      <trkpt lat="47.41917" lon="-0.43892">
        <ele>22.5</ele>
        <time>2014-09-03T08:51:36.000Z</time>
      </trkpt>
      <trkpt lat="47.41917" lon="-0.43875">
        <ele>22.5</ele>
        <time>2014-09-03T08:51:39.000Z</time>
      </trkpt>
      <trkpt lat="47.41919" lon="-0.43857">
        <ele>22.398438</ele>
        <time>2014-09-03T08:51:42.000Z</time>
      </trkpt>
      <trkpt lat="47.41925" lon="-0.43821">
        <ele>22.699219</ele>
        <time>2014-09-03T08:51:48.000Z</time>
      </trkpt>
      <trkpt lat="47.4193" lon="-0.43785">
        <ele>22.898438</ele>
        <time>2014-09-03T08:51:54.000Z</time>
      </trkpt>
      <trkpt lat="47.41931" lon="-0.43767">
        <ele>23</ele>
        <time>2014-09-03T08:51:57.000Z</time>
      </trkpt>
      <trkpt lat="47.41935" lon="-0.43604">
        <ele>24</ele>
        <time>2014-09-03T08:52:24.000Z</time>
      </trkpt>
      <trkpt lat="47.41936" lon="-0.43441">
        <ele>23.796875</ele>
        <time>2014-09-03T08:52:51.000Z</time>
      </trkpt>
      <trkpt lat="47.41934" lon="-0.43423">
        <ele>23.699219</ele>
        <time>2014-09-03T08:52:54.000Z</time>
      </trkpt>
      <trkpt lat="47.41919" lon="-0.433">
        <ele>24.5</ele>
        <time>2014-09-03T08:53:15.000Z</time>
      </trkpt>
      <trkpt lat="47.41916" lon="-0.43282">
        <ele>24.597656</ele>
        <time>2014-09-03T08:53:18.000Z</time>
      </trkpt>
      <trkpt lat="47.41902" lon="-0.43175">
        <ele>24</ele>
        <time>2014-09-03T08:53:36.000Z</time>
      </trkpt>
      <trkpt lat="47.41901" lon="-0.43158">
        <ele>23.796875</ele>
        <time>2014-09-03T08:53:39.000Z</time>
      </trkpt>
      <trkpt lat="47.419" lon="-0.43142">
        <ele>22.898438</ele>
        <time>2014-09-03T08:53:42.000Z</time>
      </trkpt>
      <trkpt lat="47.41908" lon="-0.43131">
        <ele>21.597656</ele>
        <time>2014-09-03T08:53:45.000Z</time>
      </trkpt>
      <trkpt lat="47.41921" lon="-0.43126">
        <ele>20.398438</ele>
        <time>2014-09-03T08:53:48.000Z</time>
      </trkpt>
      <trkpt lat="47.4193" lon="-0.43124">
        <ele>19.199219</ele>
        <time>2014-09-03T08:53:50.000Z</time>
      </trkpt>
      <trkpt lat="47.41941" lon="-0.43122">
        <ele>18.597656</ele>
        <time>2014-09-03T08:53:52.000Z</time>
      </trkpt>
      <trkpt lat="47.41952" lon="-0.43121">
        <ele>18.398438</ele>
        <time>2014-09-03T08:53:54.000Z</time>
      </trkpt>
      <trkpt lat="47.41963" lon="-0.43122">
        <ele>18.199219</ele>
        <time>2014-09-03T08:53:56.000Z</time>
      </trkpt>
      <trkpt lat="47.42005" lon="-0.43126">
        <ele>17.898438</ele>
        <time>2014-09-03T08:54:05.000Z</time>
      </trkpt>
      <trkpt lat="47.42014" lon="-0.43117">
        <ele>17.796875</ele>
        <time>2014-09-03T08:54:09.000Z</time>
      </trkpt>
      <trkpt lat="47.42016" lon="-0.43102">
        <ele>17.796875</ele>
        <time>2014-09-03T08:54:12.000Z</time>
      </trkpt>
      <trkpt lat="47.4203" lon="-0.42946">
        <ele>17.898438</ele>
        <time>2014-09-03T08:54:39.000Z</time>
      </trkpt>
      <trkpt lat="47.42031" lon="-0.42928">
        <ele>17.796875</ele>
        <time>2014-09-03T08:54:42.000Z</time>
      </trkpt>
      <trkpt lat="47.42031" lon="-0.42854">
        <ele>17.5</ele>
        <time>2014-09-03T08:54:54.000Z</time>
      </trkpt>
      <trkpt lat="47.42031" lon="-0.42819">
        <ele>17.398438</ele>
        <time>2014-09-03T08:55:00.000Z</time>
      </trkpt>
      <trkpt lat="47.42035" lon="-0.42806">
        <ele>18.097656</ele>
        <time>2014-09-03T08:55:05.000Z</time>
      </trkpt>
      <trkpt lat="47.42045" lon="-0.42807">
        <ele>18.199219</ele>
        <time>2014-09-03T08:55:08.000Z</time>
      </trkpt>
      <trkpt lat="47.42068" lon="-0.42812">
        <ele>18.699219</ele>
        <time>2014-09-03T08:55:14.000Z</time>
      </trkpt>
      <trkpt lat="47.4208" lon="-0.42815">
        <ele>19</ele>
        <time>2014-09-03T08:55:17.000Z</time>
      </trkpt>
      <trkpt lat="47.4209" lon="-0.42816">
        <ele>19.296875</ele>
        <time>2014-09-03T08:55:20.000Z</time>
      </trkpt>
      <trkpt lat="47.42095" lon="-0.42803">
        <ele>19.199219</ele>
        <time>2014-09-03T08:55:24.000Z</time>
      </trkpt>
      <trkpt lat="47.42097" lon="-0.42788">
        <ele>18.796875</ele>
        <time>2014-09-03T08:55:27.000Z</time>
      </trkpt>
      <trkpt lat="47.421" lon="-0.42772">
        <ele>18.796875</ele>
        <time>2014-09-03T08:55:30.000Z</time>
      </trkpt>
      <trkpt lat="47.42106" lon="-0.4272">
        <ele>18.199219</ele>
        <time>2014-09-03T08:55:39.000Z</time>
      </trkpt>
      <trkpt lat="47.4211" lon="-0.42703">
        <ele>18.097656</ele>
        <time>2014-09-03T08:55:42.000Z</time>
      </trkpt>
      <trkpt lat="47.42143" lon="-0.4253">
        <ele>17.898438</ele>
        <time>2014-09-03T08:56:12.000Z</time>
      </trkpt>
      <trkpt lat="47.42153" lon="-0.42447">
        <ele>16.796875</ele>
        <time>2014-09-03T08:56:27.000Z</time>
      </trkpt>
      <trkpt lat="47.42158" lon="-0.42431">
        <ele>16.398438</ele>
        <time>2014-09-03T08:56:30.000Z</time>
      </trkpt>
      <trkpt lat="47.42164" lon="-0.42416">
        <ele>16.398438</ele>
        <time>2014-09-03T08:56:33.000Z</time>
      </trkpt>
      <trkpt lat="47.42172" lon="-0.42402">
        <ele>16.597656</ele>
        <time>2014-09-03T08:56:36.000Z</time>
      </trkpt>
      <trkpt lat="47.42181" lon="-0.42392">
        <ele>16.796875</ele>
        <time>2014-09-03T08:56:39.000Z</time>
      </trkpt>
      <trkpt lat="47.42192" lon="-0.42384">
        <ele>17</ele>
        <time>2014-09-03T08:56:42.000Z</time>
      </trkpt>
      <trkpt lat="47.42203" lon="-0.42379">
        <ele>17.097656</ele>
        <time>2014-09-03T08:56:45.000Z</time>
      </trkpt>
      <trkpt lat="47.42272" lon="-0.42344">
        <ele>17.199219</ele>
        <time>2014-09-03T08:57:03.000Z</time>
      </trkpt>
      <trkpt lat="47.42283" lon="-0.42336">
        <ele>17.097656</ele>
        <time>2014-09-03T08:57:06.000Z</time>
      </trkpt>
      <trkpt lat="47.42293" lon="-0.42325">
        <ele>17.097656</ele>
        <time>2014-09-03T08:57:09.000Z</time>
      </trkpt>
      <trkpt lat="47.42302" lon="-0.42311">
        <ele>17.296875</ele>
        <time>2014-09-03T08:57:12.000Z</time>
      </trkpt>
      <trkpt lat="47.4231" lon="-0.42298">
        <ele>17.5</ele>
        <time>2014-09-03T08:57:15.000Z</time>
      </trkpt>
      <trkpt lat="47.42319" lon="-0.42286">
        <ele>17.597656</ele>
        <time>2014-09-03T08:57:18.000Z</time>
      </trkpt>
      <trkpt lat="47.42339" lon="-0.42264">
        <ele>17.597656</ele>
        <time>2014-09-03T08:57:24.000Z</time>
      </trkpt>
      <trkpt lat="47.42458" lon="-0.42138">
        <ele>16.5</ele>
        <time>2014-09-03T08:58:00.000Z</time>
      </trkpt>
      <trkpt lat="47.42468" lon="-0.42129">
        <ele>16.699219</ele>
        <time>2014-09-03T08:58:03.000Z</time>
      </trkpt>
      <trkpt lat="47.42479" lon="-0.42122">
        <ele>16.898438</ele>
        <time>2014-09-03T08:58:06.000Z</time>
      </trkpt>
      <trkpt lat="47.42578" lon="-0.4206">
        <ele>16.898438</ele>
        <time>2014-09-03T08:58:33.000Z</time>
      </trkpt>
      <trkpt lat="47.42589" lon="-0.42055">
        <ele>16.796875</ele>
        <time>2014-09-03T08:58:36.000Z</time>
      </trkpt>
      <trkpt lat="47.42627" lon="-0.4204">
        <ele>16.5</ele>
        <time>2014-09-03T08:58:45.000Z</time>
      </trkpt>
      <trkpt lat="47.42738" lon="-0.42005">
        <ele>15.097656</ele>
        <time>2014-09-03T08:59:12.000Z</time>
      </trkpt>
      <trkpt lat="47.42747" lon="-0.41993">
        <ele>14.796875</ele>
        <time>2014-09-03T08:59:15.000Z</time>
      </trkpt>
      <trkpt lat="47.42749" lon="-0.41976">
        <ele>14.699219</ele>
        <time>2014-09-03T08:59:18.000Z</time>
      </trkpt>
      <trkpt lat="47.42784" lon="-0.41583">
        <ele>12.597656</ele>
        <time>2014-09-03T09:00:24.000Z</time>
      </trkpt>
      <trkpt lat="47.42786" lon="-0.4151">
        <ele>13.398438</ele>
        <time>2014-09-03T09:00:36.000Z</time>
      </trkpt>
      <trkpt lat="47.42793" lon="-0.40762">
        <ele>14.199219</ele>
        <time>2014-09-03T09:02:44.000Z</time>
      </trkpt>
      <trkpt lat="47.42792" lon="-0.40743">
        <ele>14.296875</ele>
        <time>2014-09-03T09:02:47.000Z</time>
      </trkpt>
      <trkpt lat="47.42784" lon="-0.40728">
        <ele>14.597656</ele>
        <time>2014-09-03T09:02:50.000Z</time>
      </trkpt>
      <trkpt lat="47.42773" lon="-0.40722">
        <ele>14.796875</ele>
        <time>2014-09-03T09:02:53.000Z</time>
      </trkpt>
      <trkpt lat="47.4276" lon="-0.40718">
        <ele>15</ele>
        <time>2014-09-03T09:02:56.000Z</time>
      </trkpt>
      <trkpt lat="47.42359" lon="-0.40616">
        <ele>17.699219</ele>
        <time>2014-09-03T09:04:28.000Z</time>
      </trkpt>
      <trkpt lat="47.4227" lon="-0.40592">
        <ele>17.597656</ele>
        <time>2014-09-03T09:04:49.000Z</time>
      </trkpt>
      <trkpt lat="47.42257" lon="-0.40588">
        <ele>17.796875</ele>
        <time>2014-09-03T09:04:52.000Z</time>
      </trkpt>
      <trkpt lat="47.42245" lon="-0.4058">
        <ele>17.898438</ele>
        <time>2014-09-03T09:04:55.000Z</time>
      </trkpt>
      <trkpt lat="47.42234" lon="-0.40571">
        <ele>17.597656</ele>
        <time>2014-09-03T09:04:58.000Z</time>
      </trkpt>
      <trkpt lat="47.42223" lon="-0.4056">
        <ele>17.5</ele>
        <time>2014-09-03T09:05:01.000Z</time>
      </trkpt>
      <trkpt lat="47.42214" lon="-0.40549">
        <ele>17.597656</ele>
        <time>2014-09-03T09:05:04.000Z</time>
      </trkpt>
      <trkpt lat="47.42209" lon="-0.40535">
        <ele>17.398438</ele>
        <time>2014-09-03T09:05:08.000Z</time>
      </trkpt>
      <trkpt lat="47.42212" lon="-0.40521">
        <ele>17</ele>
        <time>2014-09-03T09:05:11.000Z</time>
      </trkpt>
      <trkpt lat="47.42216" lon="-0.40506">
        <ele>16.5</ele>
        <time>2014-09-03T09:05:14.000Z</time>
      </trkpt>
      <trkpt lat="47.42242" lon="-0.40418">
        <ele>16.699219</ele>
        <time>2014-09-03T09:05:29.000Z</time>
      </trkpt>
      <trkpt lat="47.42368" lon="-0.40055">
        <ele>17.097656</ele>
        <time>2014-09-03T09:06:35.000Z</time>
      </trkpt>
      <trkpt lat="47.42371" lon="-0.40039">
        <ele>17.097656</ele>
        <time>2014-09-03T09:06:38.000Z</time>
      </trkpt>
      <trkpt lat="47.42399" lon="-0.39951">
        <ele>17.097656</ele>
        <time>2014-09-03T09:07:05.000Z</time>
      </trkpt>
      <trkpt lat="47.42405" lon="-0.39937">
        <ele>16.898438</ele>
        <time>2014-09-03T09:07:09.000Z</time>
      </trkpt>
      <trkpt lat="47.42415" lon="-0.39909">
        <ele>16.199219</ele>
        <time>2014-09-03T09:07:15.000Z</time>
      </trkpt>
      <trkpt lat="47.42531" lon="-0.39574">
        <ele>15.699219</ele>
        <time>2014-09-03T09:08:21.000Z</time>
      </trkpt>
      <trkpt lat="47.42535" lon="-0.39556">
        <ele>15.796875</ele>
        <time>2014-09-03T09:08:24.000Z</time>
      </trkpt>
      <trkpt lat="47.42536" lon="-0.39537">
        <ele>16</ele>
        <time>2014-09-03T09:08:27.000Z</time>
      </trkpt>
      <trkpt lat="47.42536" lon="-0.39518">
        <ele>16.199219</ele>
        <time>2014-09-03T09:08:30.000Z</time>
      </trkpt>
      <trkpt lat="47.42535" lon="-0.395">
        <ele>16.398438</ele>
        <time>2014-09-03T09:08:33.000Z</time>
      </trkpt>
      <trkpt lat="47.42534" lon="-0.39481">
        <ele>16.597656</ele>
        <time>2014-09-03T09:08:36.000Z</time>
      </trkpt>
      <trkpt lat="47.42525" lon="-0.39423">
        <ele>17.699219</ele>
        <time>2014-09-03T09:08:45.000Z</time>
      </trkpt>
      <trkpt lat="47.42504" lon="-0.39297">
        <ele>18.5</ele>
        <time>2014-09-03T09:09:06.000Z</time>
      </trkpt>
      <trkpt lat="47.42502" lon="-0.39278">
        <ele>18.5</ele>
        <time>2014-09-03T09:09:09.000Z</time>
      </trkpt>
      <trkpt lat="47.42492" lon="-0.39167">
        <ele>18.796875</ele>
        <time>2014-09-03T09:09:27.000Z</time>
      </trkpt>
      <trkpt lat="47.42479" lon="-0.39096">
        <ele>19</ele>
        <time>2014-09-03T09:09:39.000Z</time>
      </trkpt>
      <trkpt lat="47.42466" lon="-0.39028">
        <ele>17.699219</ele>
        <time>2014-09-03T09:09:51.000Z</time>
      </trkpt>
      <trkpt lat="47.42465" lon="-0.3901">
        <ele>17.796875</ele>
        <time>2014-09-03T09:09:54.000Z</time>
      </trkpt>
      <trkpt lat="47.42465" lon="-0.38972">
        <ele>17.796875</ele>
        <time>2014-09-03T09:10:00.000Z</time>
      </trkpt>
      <trkpt lat="47.42466" lon="-0.3891">
        <ele>18.398438</ele>
        <time>2014-09-03T09:10:15.000Z</time>
      </trkpt>
      <trkpt lat="47.42467" lon="-0.38849">
        <ele>18.199219</ele>
        <time>2014-09-03T09:10:28.000Z</time>
      </trkpt>
      <trkpt lat="47.4247" lon="-0.38756">
        <ele>18</ele>
        <time>2014-09-03T09:10:46.000Z</time>
      </trkpt>
      <trkpt lat="47.42476" lon="-0.38686">
        <ele>17.796875</ele>
        <time>2014-09-03T09:10:58.000Z</time>
      </trkpt>
      <trkpt lat="47.42478" lon="-0.38668">
        <ele>17.898438</ele>
        <time>2014-09-03T09:11:01.000Z</time>
      </trkpt>
      <trkpt lat="47.42484" lon="-0.38631">
        <ele>17.796875</ele>
        <time>2014-09-03T09:11:07.000Z</time>
      </trkpt>
      <trkpt lat="47.42486" lon="-0.38597">
        <ele>18.097656</ele>
        <time>2014-09-03T09:11:13.000Z</time>
      </trkpt>
      <trkpt lat="47.42496" lon="-0.38474">
        <ele>17.796875</ele>
        <time>2014-09-03T09:11:34.000Z</time>
      </trkpt>
      <trkpt lat="47.42496" lon="-0.38455">
        <ele>17.699219</ele>
        <time>2014-09-03T09:11:37.000Z</time>
      </trkpt>
      <trkpt lat="47.42494" lon="-0.38436">
        <ele>17.796875</ele>
        <time>2014-09-03T09:11:40.000Z</time>
      </trkpt>
      <trkpt lat="47.42492" lon="-0.384">
        <ele>18</ele>
        <time>2014-09-03T09:11:46.000Z</time>
      </trkpt>
      <trkpt lat="47.42492" lon="-0.38383">
        <ele>17.796875</ele>
        <time>2014-09-03T09:11:49.000Z</time>
      </trkpt>
      <trkpt lat="47.425" lon="-0.3837">
        <ele>17.5</ele>
        <time>2014-09-03T09:11:52.000Z</time>
      </trkpt>
      <trkpt lat="47.42511" lon="-0.3836">
        <ele>17</ele>
        <time>2014-09-03T09:11:55.000Z</time>
      </trkpt>
      <trkpt lat="47.42519" lon="-0.38346">
        <ele>17</ele>
        <time>2014-09-03T09:11:58.000Z</time>
      </trkpt>
      <trkpt lat="47.42522" lon="-0.38329">
        <ele>17.199219</ele>
        <time>2014-09-03T09:12:01.000Z</time>
      </trkpt>
      <trkpt lat="47.42523" lon="-0.38313">
        <ele>17.296875</ele>
        <time>2014-09-03T09:12:04.000Z</time>
      </trkpt>
      <trkpt lat="47.42523" lon="-0.38265">
        <ele>17.296875</ele>
        <time>2014-09-03T09:12:13.000Z</time>
      </trkpt>
      <trkpt lat="47.42526" lon="-0.38248">
        <ele>17.199219</ele>
        <time>2014-09-03T09:12:17.000Z</time>
      </trkpt>
      <trkpt lat="47.42537" lon="-0.38188">
        <ele>17.296875</ele>
        <time>2014-09-03T09:12:29.000Z</time>
      </trkpt>
      <trkpt lat="47.42538" lon="-0.38172">
        <ele>17.597656</ele>
        <time>2014-09-03T09:12:32.000Z</time>
      </trkpt>
      <trkpt lat="47.42538" lon="-0.38159">
        <ele>17.898438</ele>
        <time>2014-09-03T09:12:35.000Z</time>
      </trkpt>
      <trkpt lat="47.42536" lon="-0.38142">
        <ele>18.097656</ele>
        <time>2014-09-03T09:12:40.000Z</time>
      </trkpt>
      <trkpt lat="47.42531" lon="-0.38111">
        <ele>17.898438</ele>
        <time>2014-09-03T09:12:46.000Z</time>
      </trkpt>
      <trkpt lat="47.42527" lon="-0.38094">
        <ele>17.796875</ele>
        <time>2014-09-03T09:12:49.000Z</time>
      </trkpt>
      <trkpt lat="47.42519" lon="-0.38059">
        <ele>17.796875</ele>
        <time>2014-09-03T09:12:55.000Z</time>
      </trkpt>
      <trkpt lat="47.42516" lon="-0.38041">
        <ele>17.699219</ele>
        <time>2014-09-03T09:12:58.000Z</time>
      </trkpt>
      <trkpt lat="47.42512" lon="-0.38003">
        <ele>17.796875</ele>
        <time>2014-09-03T09:13:04.000Z</time>
      </trkpt>
      <trkpt lat="47.42497" lon="-0.3783">
        <ele>18.296875</ele>
        <time>2014-09-03T09:13:31.000Z</time>
      </trkpt>
      <trkpt lat="47.42495" lon="-0.37766">
        <ele>18.5</ele>
        <time>2014-09-03T09:13:41.000Z</time>
      </trkpt>
      <trkpt lat="47.42489" lon="-0.37588">
        <ele>18.398438</ele>
        <time>2014-09-03T09:14:11.000Z</time>
      </trkpt>
      <trkpt lat="47.42487" lon="-0.37571">
        <ele>18.398438</ele>
        <time>2014-09-03T09:14:14.000Z</time>
      </trkpt>
      <trkpt lat="47.42484" lon="-0.37555">
        <ele>18.5</ele>
        <time>2014-09-03T09:14:17.000Z</time>
      </trkpt>
      <trkpt lat="47.42473" lon="-0.37505">
        <ele>18.296875</ele>
        <time>2014-09-03T09:14:26.000Z</time>
      </trkpt>
      <trkpt lat="47.42468" lon="-0.37489">
        <ele>18.296875</ele>
        <time>2014-09-03T09:14:29.000Z</time>
      </trkpt>
      <trkpt lat="47.42437" lon="-0.37393">
        <ele>18.597656</ele>
        <time>2014-09-03T09:14:47.000Z</time>
      </trkpt>
      <trkpt lat="47.42403" lon="-0.37297">
        <ele>18.898438</ele>
        <time>2014-09-03T09:15:05.000Z</time>
      </trkpt>
      <trkpt lat="47.42384" lon="-0.37229">
        <ele>19.199219</ele>
        <time>2014-09-03T09:15:17.000Z</time>
      </trkpt>
      <trkpt lat="47.42353" lon="-0.37091">
        <ele>19.398438</ele>
        <time>2014-09-03T09:15:41.000Z</time>
      </trkpt>
      <trkpt lat="47.4231" lon="-0.36839">
        <ele>19.296875</ele>
        <time>2014-09-03T09:16:23.000Z</time>
      </trkpt>
      <trkpt lat="47.42304" lon="-0.36804">
        <ele>18.699219</ele>
        <time>2014-09-03T09:16:29.000Z</time>
      </trkpt>
      <trkpt lat="47.42301" lon="-0.36789">
        <ele>18.199219</ele>
        <time>2014-09-03T09:16:32.000Z</time>
      </trkpt>
      <trkpt lat="47.42294" lon="-0.36778">
        <ele>18.296875</ele>
        <time>2014-09-03T09:16:35.000Z</time>
      </trkpt>
      <trkpt lat="47.42285" lon="-0.36777">
        <ele>18.097656</ele>
        <time>2014-09-03T09:16:38.000Z</time>
      </trkpt>
      <trkpt lat="47.42275" lon="-0.36781">
        <ele>17.898438</ele>
        <time>2014-09-03T09:16:41.000Z</time>
      </trkpt>
      <trkpt lat="47.421" lon="-0.36853">
        <ele>19.199219</ele>
        <time>2014-09-03T09:17:26.000Z</time>
      </trkpt>
      <trkpt lat="47.42003" lon="-0.36884">
        <ele>20.796875</ele>
        <time>2014-09-03T09:17:50.000Z</time>
      </trkpt>
      <trkpt lat="47.41978" lon="-0.36897">
        <ele>20.796875</ele>
        <time>2014-09-03T09:17:56.000Z</time>
      </trkpt>
      <trkpt lat="47.41887" lon="-0.36948">
        <ele>21.597656</ele>
        <time>2014-09-03T09:18:20.000Z</time>
      </trkpt>
      <trkpt lat="47.41875" lon="-0.36952">
        <ele>21.898438</ele>
        <time>2014-09-03T09:18:23.000Z</time>
      </trkpt>
      <trkpt lat="47.4179" lon="-0.36981">
        <ele>24.199219</ele>
        <time>2014-09-03T09:18:47.000Z</time>
      </trkpt>
      <trkpt lat="47.41801" lon="-0.36975">
        <ele>23.398438</ele>
        <time>2014-09-03T09:19:46.000Z</time>
      </trkpt>
      <trkpt lat="47.41813" lon="-0.3697">
        <ele>22.699219</ele>
        <time>2014-09-03T09:19:49.000Z</time>
      </trkpt>
      <trkpt lat="47.41892" lon="-0.36945">
        <ele>19.699219</ele>
        <time>2014-09-03T09:20:05.000Z</time>
      </trkpt>
      <trkpt lat="47.41901" lon="-0.3694">
        <ele>19.296875</ele>
        <time>2014-09-03T09:20:07.000Z</time>
      </trkpt>
      <trkpt lat="47.42017" lon="-0.36875">
        <ele>17.398438</ele>
        <time>2014-09-03T09:20:35.000Z</time>
      </trkpt>
      <trkpt lat="47.42067" lon="-0.36861">
        <ele>18.398438</ele>
        <time>2014-09-03T09:20:46.000Z</time>
      </trkpt>
      <trkpt lat="47.42116" lon="-0.36848">
        <ele>19.199219</ele>
        <time>2014-09-03T09:20:58.000Z</time>
      </trkpt>
      <trkpt lat="47.42126" lon="-0.36842">
        <ele>19.296875</ele>
        <time>2014-09-03T09:21:01.000Z</time>
      </trkpt>
      <trkpt lat="47.4213" lon="-0.36828">
        <ele>19.296875</ele>
        <time>2014-09-03T09:21:05.000Z</time>
      </trkpt>
      <trkpt lat="47.42129" lon="-0.36813">
        <ele>19</ele>
        <time>2014-09-03T09:21:09.000Z</time>
      </trkpt>
      <trkpt lat="47.42127" lon="-0.36798">
        <ele>18.796875</ele>
        <time>2014-09-03T09:21:12.000Z</time>
      </trkpt>
      <trkpt lat="47.42121" lon="-0.36767">
        <ele>18.796875</ele>
        <time>2014-09-03T09:21:18.000Z</time>
      </trkpt>
      <trkpt lat="47.42093" lon="-0.36637">
        <ele>20</ele>
        <time>2014-09-03T09:21:41.000Z</time>
      </trkpt>
      <trkpt lat="47.41973" lon="-0.36035">
        <ele>20.199219</ele>
        <time>2014-09-03T09:23:21.000Z</time>
      </trkpt>
      <trkpt lat="47.41973" lon="-0.36021">
        <ele>19.898438</ele>
        <time>2014-09-03T09:23:25.000Z</time>
      </trkpt>
      <trkpt lat="47.41979" lon="-0.36011">
        <ele>20.097656</ele>
        <time>2014-09-03T09:23:32.000Z</time>
      </trkpt>
      <trkpt lat="47.41989" lon="-0.3601">
        <ele>20.199219</ele>
        <time>2014-09-03T09:23:37.000Z</time>
      </trkpt>
      <trkpt lat="47.41999" lon="-0.3601">
        <ele>20.199219</ele>
        <time>2014-09-03T09:23:40.000Z</time>
      </trkpt>
      <trkpt lat="47.4201" lon="-0.36011">
        <ele>20.199219</ele>
        <time>2014-09-03T09:23:43.000Z</time>
      </trkpt>
      <trkpt lat="47.42022" lon="-0.36013">
        <ele>20.296875</ele>
        <time>2014-09-03T09:23:46.000Z</time>
      </trkpt>
      <trkpt lat="47.42035" lon="-0.36017">
        <ele>19.597656</ele>
        <time>2014-09-03T09:23:49.000Z</time>
      </trkpt>
      <trkpt lat="47.42046" lon="-0.36015">
        <ele>19.296875</ele>
        <time>2014-09-03T09:23:52.000Z</time>
      </trkpt>
      <trkpt lat="47.42059" lon="-0.36012">
        <ele>19.296875</ele>
        <time>2014-09-03T09:23:55.000Z</time>
      </trkpt>
      <trkpt lat="47.4207" lon="-0.36008">
        <ele>19.597656</ele>
        <time>2014-09-03T09:23:58.000Z</time>
      </trkpt>
      <trkpt lat="47.42074" lon="-0.35993">
        <ele>19.597656</ele>
        <time>2014-09-03T09:24:01.000Z</time>
      </trkpt>
      <trkpt lat="47.42072" lon="-0.35975">
        <ele>19.398438</ele>
        <time>2014-09-03T09:24:04.000Z</time>
      </trkpt>
      <trkpt lat="47.4207" lon="-0.35957">
        <ele>18.898438</ele>
        <time>2014-09-03T09:24:07.000Z</time>
      </trkpt>
      <trkpt lat="47.42052" lon="-0.35726">
        <ele>19.796875</ele>
        <time>2014-09-03T09:24:46.000Z</time>
      </trkpt>
      <trkpt lat="47.42049" lon="-0.3571">
        <ele>19.898438</ele>
        <time>2014-09-03T09:24:49.000Z</time>
      </trkpt>
      <trkpt lat="47.41995" lon="-0.35469">
        <ele>23.296875</ele>
        <time>2014-09-03T09:25:35.000Z</time>
      </trkpt>
      <trkpt lat="47.41992" lon="-0.35453">
        <ele>22.796875</ele>
        <time>2014-09-03T09:27:39.000Z</time>
      </trkpt>
      <trkpt lat="47.4199" lon="-0.35438">
        <ele>22.5</ele>
        <time>2014-09-03T09:27:44.000Z</time>
      </trkpt>
      <trkpt lat="47.41986" lon="-0.35424">
        <ele>22.199219</ele>
        <time>2014-09-03T09:27:49.000Z</time>
      </trkpt>
      <trkpt lat="47.41973" lon="-0.35365">
        <ele>21.097656</ele>
        <time>2014-09-03T09:28:02.000Z</time>
      </trkpt>
      <trkpt lat="47.41939" lon="-0.35171">
        <ele>20</ele>
        <time>2014-09-03T09:28:33.000Z</time>
      </trkpt>
      <trkpt lat="47.41934" lon="-0.35155">
        <ele>19.898438</ele>
        <time>2014-09-03T09:28:36.000Z</time>
      </trkpt>
      <trkpt lat="47.41928" lon="-0.35139">
        <ele>19.796875</ele>
        <time>2014-09-03T09:28:39.000Z</time>
      </trkpt>
      <trkpt lat="47.41923" lon="-0.35124">
        <ele>19.898438</ele>
        <time>2014-09-03T09:28:42.000Z</time>
      </trkpt>
      <trkpt lat="47.41915" lon="-0.3511">
        <ele>19.796875</ele>
        <time>2014-09-03T09:28:45.000Z</time>
      </trkpt>
      <trkpt lat="47.41904" lon="-0.35103">
        <ele>20</ele>
        <time>2014-09-03T09:28:48.000Z</time>
      </trkpt>
      <trkpt lat="47.41892" lon="-0.351">
        <ele>20.296875</ele>
        <time>2014-09-03T09:28:51.000Z</time>
      </trkpt>
      <trkpt lat="47.4188" lon="-0.35099">
        <ele>20.398438</ele>
        <time>2014-09-03T09:28:54.000Z</time>
      </trkpt>
      <trkpt lat="47.41793" lon="-0.35098">
        <ele>22</ele>
        <time>2014-09-03T09:29:15.000Z</time>
      </trkpt>
      <trkpt lat="47.4178" lon="-0.35095">
        <ele>22.199219</ele>
        <time>2014-09-03T09:29:18.000Z</time>
      </trkpt>
      <trkpt lat="47.41773" lon="-0.35082">
        <ele>22.296875</ele>
        <time>2014-09-03T09:29:21.000Z</time>
      </trkpt>
      <trkpt lat="47.41769" lon="-0.35067">
        <ele>22.296875</ele>
        <time>2014-09-03T09:29:24.000Z</time>
      </trkpt>
      <trkpt lat="47.41766" lon="-0.3505">
        <ele>22.296875</ele>
        <time>2014-09-03T09:29:27.000Z</time>
      </trkpt>
      <trkpt lat="47.41685" lon="-0.3454">
        <ele>22.699219</ele>
        <time>2014-09-03T09:30:57.000Z</time>
      </trkpt>
      <trkpt lat="47.41679" lon="-0.34528">
        <ele>22.699219</ele>
        <time>2014-09-03T09:31:00.000Z</time>
      </trkpt>
      <trkpt lat="47.4167" lon="-0.34521">
        <ele>22.597656</ele>
        <time>2014-09-03T09:31:03.000Z</time>
      </trkpt>
      <trkpt lat="47.41651" lon="-0.34504">
        <ele>22.398438</ele>
        <time>2014-09-03T09:31:09.000Z</time>
      </trkpt>
      <trkpt lat="47.41642" lon="-0.34494">
        <ele>22.398438</ele>
        <time>2014-09-03T09:31:12.000Z</time>
      </trkpt>
      <trkpt lat="47.41633" lon="-0.34481">
        <ele>22.398438</ele>
        <time>2014-09-03T09:31:15.000Z</time>
      </trkpt>
      <trkpt lat="47.41625" lon="-0.34468">
        <ele>22.398438</ele>
        <time>2014-09-03T09:31:18.000Z</time>
      </trkpt>
      <trkpt lat="47.41578" lon="-0.34391">
        <ele>21.796875</ele>
        <time>2014-09-03T09:31:38.000Z</time>
      </trkpt>
      <trkpt lat="47.4157" lon="-0.34385">
        <ele>21.699219</ele>
        <time>2014-09-03T09:31:41.000Z</time>
      </trkpt>
      <trkpt lat="47.41564" lon="-0.34373">
        <ele>21.699219</ele>
        <time>2014-09-03T09:31:44.000Z</time>
      </trkpt>
      <trkpt lat="47.41569" lon="-0.34361">
        <ele>21.597656</ele>
        <time>2014-09-03T09:31:47.000Z</time>
      </trkpt>
      <trkpt lat="47.41578" lon="-0.34352">
        <ele>21.796875</ele>
        <time>2014-09-03T09:31:50.000Z</time>
      </trkpt>
      <trkpt lat="47.41618" lon="-0.3431">
        <ele>22</ele>
        <time>2014-09-03T09:32:02.000Z</time>
      </trkpt>
      <trkpt lat="47.41628" lon="-0.34301">
        <ele>22.097656</ele>
        <time>2014-09-03T09:32:05.000Z</time>
      </trkpt>
      <trkpt lat="47.41639" lon="-0.34297">
        <ele>22.199219</ele>
        <time>2014-09-03T09:32:08.000Z</time>
      </trkpt>
      <trkpt lat="47.41643" lon="-0.34282">
        <ele>22.597656</ele>
        <time>2014-09-03T09:32:12.000Z</time>
      </trkpt>
      <trkpt lat="47.41638" lon="-0.34265">
        <ele>23.097656</ele>
        <time>2014-09-03T09:32:16.000Z</time>
      </trkpt>
      <trkpt lat="47.41605" lon="-0.34154">
        <ele>23</ele>
        <time>2014-09-03T09:32:37.000Z</time>
      </trkpt>
      <trkpt lat="47.41429" lon="-0.33597">
        <ele>21.796875</ele>
        <time>2014-09-03T09:34:19.000Z</time>
      </trkpt>
      <trkpt lat="47.41423" lon="-0.33587">
        <ele>21.796875</ele>
        <time>2014-09-03T09:34:21.000Z</time>
      </trkpt>
      <trkpt lat="47.41415" lon="-0.33579">
        <ele>21.796875</ele>
        <time>2014-09-03T09:34:23.000Z</time>
      </trkpt>
      <trkpt lat="47.41406" lon="-0.33576">
        <ele>21.898438</ele>
        <time>2014-09-03T09:34:25.000Z</time>
      </trkpt>
      <trkpt lat="47.41397" lon="-0.33574">
        <ele>22</ele>
        <time>2014-09-03T09:34:27.000Z</time>
      </trkpt>
      <trkpt lat="47.41368" lon="-0.33569">
        <ele>22.199219</ele>
        <time>2014-09-03T09:34:33.000Z</time>
      </trkpt>
      <trkpt lat="47.41358" lon="-0.33565">
        <ele>22.097656</ele>
        <time>2014-09-03T09:34:35.000Z</time>
      </trkpt>
      <trkpt lat="47.4135" lon="-0.33559">
        <ele>22</ele>
        <time>2014-09-03T09:34:37.000Z</time>
      </trkpt>
      <trkpt lat="47.41341" lon="-0.33551">
        <ele>22.097656</ele>
        <time>2014-09-03T09:34:39.000Z</time>
      </trkpt>
      <trkpt lat="47.41333" lon="-0.33543">
        <ele>22.097656</ele>
        <time>2014-09-03T09:34:41.000Z</time>
      </trkpt>
      <trkpt lat="47.41326" lon="-0.33534">
        <ele>22</ele>
        <time>2014-09-03T09:34:43.000Z</time>
      </trkpt>
      <trkpt lat="47.41319" lon="-0.33524">
        <ele>22</ele>
        <time>2014-09-03T09:34:45.000Z</time>
      </trkpt>
      <trkpt lat="47.41314" lon="-0.33512">
        <ele>21.898438</ele>
        <time>2014-09-03T09:34:47.000Z</time>
      </trkpt>
      <trkpt lat="47.41312" lon="-0.33499">
        <ele>21.699219</ele>
        <time>2014-09-03T09:34:49.000Z</time>
      </trkpt>
      <trkpt lat="47.41312" lon="-0.33485">
        <ele>22</ele>
        <time>2014-09-03T09:34:51.000Z</time>
      </trkpt>
      <trkpt lat="47.41312" lon="-0.33466">
        <ele>22.398438</ele>
        <time>2014-09-03T09:34:54.000Z</time>
      </trkpt>
      <trkpt lat="47.41318" lon="-0.33363">
        <ele>22.398438</ele>
        <time>2014-09-03T09:35:12.000Z</time>
      </trkpt>
      <trkpt lat="47.4132" lon="-0.33346">
        <ele>22.5</ele>
        <time>2014-09-03T09:35:15.000Z</time>
      </trkpt>
      <trkpt lat="47.41328" lon="-0.33335">
        <ele>22.699219</ele>
        <time>2014-09-03T09:35:18.000Z</time>
      </trkpt>
      <trkpt lat="47.41338" lon="-0.3333">
        <ele>22.796875</ele>
        <time>2014-09-03T09:35:21.000Z</time>
      </trkpt>
      <trkpt lat="47.41349" lon="-0.33328">
        <ele>22.5</ele>
        <time>2014-09-03T09:35:24.000Z</time>
      </trkpt>
      <trkpt lat="47.41385" lon="-0.33323">
        <ele>20.898438</ele>
        <time>2014-09-03T09:35:33.000Z</time>
      </trkpt>
      <trkpt lat="47.41396" lon="-0.33321">
        <ele>20.699219</ele>
        <time>2014-09-03T09:35:36.000Z</time>
      </trkpt>
      <trkpt lat="47.41468" lon="-0.33305">
        <ele>20</ele>
        <time>2014-09-03T09:35:54.000Z</time>
      </trkpt>
      <trkpt lat="47.41475" lon="-0.33294">
        <ele>20.296875</ele>
        <time>2014-09-03T09:35:57.000Z</time>
      </trkpt>
      <trkpt lat="47.41476" lon="-0.33278">
        <ele>20.5</ele>
        <time>2014-09-03T09:36:00.000Z</time>
      </trkpt>
      <trkpt lat="47.41478" lon="-0.3308">
        <ele>22</ele>
        <time>2014-09-03T09:36:33.000Z</time>
      </trkpt>
      <trkpt lat="47.4147" lon="-0.32789">
        <ele>23.097656</ele>
        <time>2014-09-03T09:37:21.000Z</time>
      </trkpt>
      <trkpt lat="47.41468" lon="-0.32772">
        <ele>22.898438</ele>
        <time>2014-09-03T09:37:24.000Z</time>
      </trkpt>
      <trkpt lat="47.41464" lon="-0.32755">
        <ele>22.796875</ele>
        <time>2014-09-03T09:37:27.000Z</time>
      </trkpt>
      <trkpt lat="47.41249" lon="-0.31921">
        <ele>23</ele>
        <time>2014-09-03T09:40:01.000Z</time>
      </trkpt>
      <trkpt lat="47.41245" lon="-0.31908">
        <ele>23.199219</ele>
        <time>2014-09-03T09:40:05.000Z</time>
      </trkpt>
      <trkpt lat="47.41235" lon="-0.31903">
        <ele>23.097656</ele>
        <time>2014-09-03T09:40:10.000Z</time>
      </trkpt>
      <trkpt lat="47.41225" lon="-0.31905">
        <ele>23.199219</ele>
        <time>2014-09-03T09:40:13.000Z</time>
      </trkpt>
      <trkpt lat="47.41139" lon="-0.31924">
        <ele>16.796875</ele>
        <time>2014-09-03T09:40:37.000Z</time>
      </trkpt>
      <trkpt lat="47.41127" lon="-0.31929">
        <ele>16.699219</ele>
        <time>2014-09-03T09:40:40.000Z</time>
      </trkpt>
      <trkpt lat="47.41115" lon="-0.31933">
        <ele>16.796875</ele>
        <time>2014-09-03T09:40:43.000Z</time>
      </trkpt>
      <trkpt lat="47.41054" lon="-0.31948">
        <ele>17.5</ele>
        <time>2014-09-03T09:40:58.000Z</time>
      </trkpt>
      <trkpt lat="47.41043" lon="-0.31949">
        <ele>15.398438</ele>
        <time>2014-09-03T09:41:01.000Z</time>
      </trkpt>
      <trkpt lat="47.41033" lon="-0.31952">
        <ele>15</ele>
        <time>2014-09-03T09:41:04.000Z</time>
      </trkpt>
      <trkpt lat="47.41012" lon="-0.31958">
        <ele>15</ele>
        <time>2014-09-03T09:41:10.000Z</time>
      </trkpt>
      <trkpt lat="47.41003" lon="-0.31964">
        <ele>17.5</ele>
        <time>2014-09-03T09:41:16.000Z</time>
      </trkpt>
      <trkpt lat="47.40963" lon="-0.31988">
        <ele>23.296875</ele>
        <time>2014-09-03T09:41:30.000Z</time>
      </trkpt>
      <trkpt lat="47.40953" lon="-0.31995">
        <ele>24</ele>
        <time>2014-09-03T09:41:33.000Z</time>
      </trkpt>
      <trkpt lat="47.40944" lon="-0.32002">
        <ele>24.699219</ele>
        <time>2014-09-03T09:41:36.000Z</time>
      </trkpt>
      <trkpt lat="47.40935" lon="-0.32008">
        <ele>25.898438</ele>
        <time>2014-09-03T09:41:39.000Z</time>
      </trkpt>
      <trkpt lat="47.40927" lon="-0.32019">
        <ele>26.796875</ele>
        <time>2014-09-03T09:41:43.000Z</time>
      </trkpt>
      <trkpt lat="47.40952" lon="-0.32195">
        <ele>19.898438</ele>
        <time>2014-09-03T09:45:22.000Z</time>
      </trkpt>
      <trkpt lat="47.40961" lon="-0.32185">
        <ele>30.679688</ele>
        <time>2014-09-03T09:46:07.000Z</time>
      </trkpt>
      <trkpt lat="47.40946" lon="-0.32193">
        <ele>30.796875</ele>
        <time>2014-09-03T09:59:47.000Z</time>
      </trkpt>
      <trkpt lat="47.40936" lon="-0.3219">
        <ele>31.699219</ele>
        <time>2014-09-03T10:00:02.000Z</time>
      </trkpt>
      <trkpt lat="47.40931" lon="-0.32179">
        <ele>31.5</ele>
        <time>2014-09-03T10:00:05.000Z</time>
      </trkpt>
      <trkpt lat="47.40926" lon="-0.32164">
        <ele>30.5</ele>
        <time>2014-09-03T10:00:08.000Z</time>
      </trkpt>
      <trkpt lat="47.40921" lon="-0.32147">
        <ele>28.199219</ele>
        <time>2014-09-03T10:00:11.000Z</time>
      </trkpt>
      <trkpt lat="47.40908" lon="-0.32094">
        <ele>23.796875</ele>
        <time>2014-09-03T10:00:20.000Z</time>
      </trkpt>
      <trkpt lat="47.40897" lon="-0.3206">
        <ele>24.199219</ele>
        <time>2014-09-03T10:00:26.000Z</time>
      </trkpt>
      <trkpt lat="47.40894" lon="-0.32042">
        <ele>24.5</ele>
        <time>2014-09-03T10:00:29.000Z</time>
      </trkpt>
      <trkpt lat="47.40893" lon="-0.32025">
        <ele>24.597656</ele>
        <time>2014-09-03T10:00:32.000Z</time>
      </trkpt>
      <trkpt lat="47.40887" lon="-0.31949">
        <ele>25.199219</ele>
        <time>2014-09-03T10:00:44.000Z</time>
      </trkpt>
      <trkpt lat="47.40885" lon="-0.31931">
        <ele>25.199219</ele>
        <time>2014-09-03T10:00:47.000Z</time>
      </trkpt>
      <trkpt lat="47.40882" lon="-0.31913">
        <ele>25.398438</ele>
        <time>2014-09-03T10:00:50.000Z</time>
      </trkpt>
      <trkpt lat="47.40878" lon="-0.31896">
        <ele>25.699219</ele>
        <time>2014-09-03T10:00:53.000Z</time>
      </trkpt>
      <trkpt lat="47.40873" lon="-0.3188">
        <ele>26.296875</ele>
        <time>2014-09-03T10:00:56.000Z</time>
      </trkpt>
      <trkpt lat="47.4087" lon="-0.31863">
        <ele>26.699219</ele>
        <time>2014-09-03T10:00:59.000Z</time>
      </trkpt>
      <trkpt lat="47.40867" lon="-0.31847">
        <ele>27.296875</ele>
        <time>2014-09-03T10:01:02.000Z</time>
      </trkpt>
      <trkpt lat="47.40859" lon="-0.31836">
        <ele>27.5</ele>
        <time>2014-09-03T10:01:05.000Z</time>
      </trkpt>
      <trkpt lat="47.4085" lon="-0.31835">
        <ele>27.898438</ele>
        <time>2014-09-03T10:01:08.000Z</time>
      </trkpt>
      <trkpt lat="47.40838" lon="-0.31837">
        <ele>28</ele>
        <time>2014-09-03T10:01:11.000Z</time>
      </trkpt>
      <trkpt lat="47.40771" lon="-0.31853">
        <ele>26.796875</ele>
        <time>2014-09-03T10:01:29.000Z</time>
      </trkpt>
      <trkpt lat="47.40463" lon="-0.31933">
        <ele>19.5</ele>
        <time>2014-09-03T10:02:38.000Z</time>
      </trkpt>
      <trkpt lat="47.40451" lon="-0.31934">
        <ele>20</ele>
        <time>2014-09-03T10:02:40.000Z</time>
      </trkpt>
      <trkpt lat="47.40439" lon="-0.31937">
        <ele>19.898438</ele>
        <time>2014-09-03T10:02:43.000Z</time>
      </trkpt>
      <trkpt lat="47.40451" lon="-0.31943">
        <ele>19.796875</ele>
        <time>2014-09-03T10:02:50.000Z</time>
      </trkpt>
      <trkpt lat="47.40464" lon="-0.3194">
        <ele>19.597656</ele>
        <time>2014-09-03T10:02:53.000Z</time>
      </trkpt>
      <trkpt lat="47.40476" lon="-0.3194">
        <ele>18.796875</ele>
        <time>2014-09-03T10:02:56.000Z</time>
      </trkpt>
      <trkpt lat="47.40485" lon="-0.31943">
        <ele>17.5</ele>
        <time>2014-09-03T10:02:59.000Z</time>
      </trkpt>
      <trkpt lat="47.40491" lon="-0.31954">
        <ele>19.199219</ele>
        <time>2014-09-03T10:03:02.000Z</time>
      </trkpt>
      <trkpt lat="47.40498" lon="-0.31962">
        <ele>47.699219</ele>
        <time>2014-09-03T10:03:05.000Z</time>
      </trkpt>
      <trkpt lat="47.40501" lon="-0.31943">
        <ele>44.699219</ele>
        <time>2014-09-03T10:05:50.000Z</time>
      </trkpt>
      <trkpt lat="47.40498" lon="-0.31929">
        <ele>43.199219</ele>
        <time>2014-09-03T10:06:19.000Z</time>
      </trkpt>
      <trkpt lat="47.40497" lon="-0.31914">
        <ele>42</ele>
        <time>2014-09-03T10:06:27.000Z</time>
      </trkpt>
      <trkpt lat="47.40498" lon="-0.319">
        <ele>37.097656</ele>
        <time>2014-09-03T10:06:35.000Z</time>
      </trkpt>
      <trkpt lat="47.40489" lon="-0.319">
        <ele>31</ele>
        <time>2014-09-03T10:06:52.000Z</time>
      </trkpt>
      <trkpt lat="47.40479" lon="-0.31901">
        <ele>27.5</ele>
        <time>2014-09-03T10:07:00.000Z</time>
      </trkpt>
      <trkpt lat="47.4047" lon="-0.31904">
        <ele>25</ele>
        <time>2014-09-03T10:07:05.000Z</time>
      </trkpt>
      <trkpt lat="47.40459" lon="-0.31903">
        <ele>22.898438</ele>
        <time>2014-09-03T10:07:09.000Z</time>
      </trkpt>
      <trkpt lat="47.40435" lon="-0.31899">
        <ele>21.699219</ele>
        <time>2014-09-03T10:07:15.000Z</time>
      </trkpt>
      <trkpt lat="47.40423" lon="-0.319">
        <ele>21.5</ele>
        <time>2014-09-03T10:07:18.000Z</time>
      </trkpt>
      <trkpt lat="47.40411" lon="-0.31897">
        <ele>20.398438</ele>
        <time>2014-09-03T10:07:21.000Z</time>
      </trkpt>
      <trkpt lat="47.4039" lon="-0.31891">
        <ele>15.398438</ele>
        <time>2014-09-03T10:07:27.000Z</time>
      </trkpt>
      <trkpt lat="47.40367" lon="-0.31881">
        <ele>13.199219</ele>
        <time>2014-09-03T10:07:33.000Z</time>
      </trkpt>
      <trkpt lat="47.40244" lon="-0.31826">
        <ele>15.398438</ele>
        <time>2014-09-03T10:08:06.000Z</time>
      </trkpt>
      <trkpt lat="47.40205" lon="-0.31815">
        <ele>16.796875</ele>
        <time>2014-09-03T10:08:15.000Z</time>
      </trkpt>
      <trkpt lat="47.40045" lon="-0.31791">
        <ele>19.398438</ele>
        <time>2014-09-03T10:08:50.000Z</time>
      </trkpt>
      <trkpt lat="47.40012" lon="-0.31788">
        <ele>9.398438</ele>
        <time>2014-09-03T10:08:58.000Z</time>
      </trkpt>
      <trkpt lat="47.40001" lon="-0.31789">
        <ele>8.699219</ele>
        <time>2014-09-03T10:09:01.000Z</time>
      </trkpt>
      <trkpt lat="47.39989" lon="-0.31787">
        <ele>8.5</ele>
        <time>2014-09-03T10:09:04.000Z</time>
      </trkpt>
      <trkpt lat="47.39978" lon="-0.31784">
        <ele>9.296875</ele>
        <time>2014-09-03T10:09:07.000Z</time>
      </trkpt>
      <trkpt lat="47.39969" lon="-0.31779">
        <ele>10.199219</ele>
        <time>2014-09-03T10:09:10.000Z</time>
      </trkpt>
      <trkpt lat="47.3996" lon="-0.31775">
        <ele>11.296875</ele>
        <time>2014-09-03T10:09:13.000Z</time>
      </trkpt>
      <trkpt lat="47.3995" lon="-0.31771">
        <ele>10.597656</ele>
        <time>2014-09-03T10:09:16.000Z</time>
      </trkpt>
      <trkpt lat="47.39938" lon="-0.3177">
        <ele>11.296875</ele>
        <time>2014-09-03T10:09:20.000Z</time>
      </trkpt>
      <trkpt lat="47.39929" lon="-0.31766">
        <ele>12.398438</ele>
        <time>2014-09-03T10:09:23.000Z</time>
      </trkpt>
      <trkpt lat="47.3992" lon="-0.31759">
        <ele>11.597656</ele>
        <time>2014-09-03T10:09:26.000Z</time>
      </trkpt>
      <trkpt lat="47.39884" lon="-0.31733">
        <ele>11.699219</ele>
        <time>2014-09-03T10:09:38.000Z</time>
      </trkpt>
      <trkpt lat="47.39874" lon="-0.31728">
        <ele>12.5</ele>
        <time>2014-09-03T10:09:41.000Z</time>
      </trkpt>
      <trkpt lat="47.39845" lon="-0.31713">
        <ele>17.5</ele>
        <time>2014-09-03T10:09:53.000Z</time>
      </trkpt>
      <trkpt lat="47.39838" lon="-0.31702">
        <ele>18.5</ele>
        <time>2014-09-03T10:09:57.000Z</time>
      </trkpt>
      <trkpt lat="47.39834" lon="-0.31688">
        <ele>19.796875</ele>
        <time>2014-09-03T10:10:00.000Z</time>
      </trkpt>
      <trkpt lat="47.3983" lon="-0.31675">
        <ele>20.898438</ele>
        <time>2014-09-03T10:10:03.000Z</time>
      </trkpt>
      <trkpt lat="47.39827" lon="-0.3166">
        <ele>21.699219</ele>
        <time>2014-09-03T10:10:06.000Z</time>
      </trkpt>
      <trkpt lat="47.39825" lon="-0.31644">
        <ele>22.699219</ele>
        <time>2014-09-03T10:10:09.000Z</time>
      </trkpt>
      <trkpt lat="47.3982" lon="-0.3163">
        <ele>24.199219</ele>
        <time>2014-09-03T10:10:12.000Z</time>
      </trkpt>
      <trkpt lat="47.3981" lon="-0.31622">
        <ele>25.5</ele>
        <time>2014-09-03T10:10:16.000Z</time>
      </trkpt>
      <trkpt lat="47.39799" lon="-0.3162">
        <ele>26.597656</ele>
        <time>2014-09-03T10:10:20.000Z</time>
      </trkpt>
      <trkpt lat="47.39788" lon="-0.31619">
        <ele>27.097656</ele>
        <time>2014-09-03T10:10:24.000Z</time>
      </trkpt>
      <trkpt lat="47.39778" lon="-0.31621">
        <ele>27.199219</ele>
        <time>2014-09-03T10:10:29.000Z</time>
      </trkpt>
      <trkpt lat="47.39771" lon="-0.31633">
        <ele>29.199219</ele>
        <time>2014-09-03T10:10:35.000Z</time>
      </trkpt>
      <trkpt lat="47.39771" lon="-0.31652">
        <ele>31.863281</ele>
        <time>2014-09-03T10:10:55.000Z</time>
      </trkpt>
    </trkseg>
  </trk>
</gpx>